Lyons, Michigan
Current Conditions -  °F | °C
As of 7:54 AM on Thursday 27 Nov 2014 (Local Time) from KY70 Reporting Station
Overcast Overcast  
Wind Chill: 22°   Ceiling: 7000
Heat Index: 28°   Visibility: 10mi
Dew Point: 25°   Wind: 6mph
Humidity: 86%   Direction: 300°WNW
Pressure: 30.15"   Gusts: NA
Location:  42.98°N, 84.95°W
Report Text: KY70 271254Z AUTO 30005KT 10SM SCT043 SCT050 OVC070 M02/M04 A3015 RMK AO2 T10201040
Loading
Personal Weather Stations






























Interactive Weather Map New forecast layout! Learn more

10-Day Weather Forecast

Advertisements
Track Severe Weather on mobile